sensor_id;sensor_type;location;lat;lon;timestamp;P1;durP1;ratioP1;P2;durP2;ratioP2
16197;SDS011;8206;51.440;6.914;2023-05-10T00:00:20;2.40;;;2.30;;
16197;SDS011;8206;51.440;6.914;2023-05-10T00:02:48;3.05;;;2.85;;
16197;SDS011;8206;51.440;6.914;2023-05-10T00:05:15;4.72;;;3.00;;
16197;SDS011;8206;51.440;6.914;2023-05-10T00:07:42;3.03;;;2.80;;
16197;SDS011;8206;51.440;6.914;2023-05-10T00:10:09;4.13;;;1.30;;
16197;SDS011;8206;51.440;6.914;2023-05-10T00:12:36;2.03;;;1.90;;
16197;SDS011;8206;51.440;6.914;2023-05-10T00:15:05;3.17;;;2.97;;
16197;SDS011;8206;51.440;6.914;2023-05-10T00:17:33;2.95;;;2.47;;
16197;SDS011;8206;51.440;6.914;2023-05-10T00:19:59;1.70;;;1.60;;
16197;SDS011;8206;51.440;6.914;2023-05-10T00:22:26;3.78;;;3.50;;
16197;SDS011;8206;51.440;6.914;2023-05-10T00:24:53;3.28;;;2.63;;
16197;SDS011;8206;51.440;6.914;2023-05-10T00:27:19;7.72;;;4.38;;
16197;SDS011;8206;51.440;6.914;2023-05-10T00:29:46;5.55;;;3.92;;
16197;SDS011;8206;51.440;6.914;2023-05-10T00:32:14;2.90;;;2.72;;
16197;SDS011;8206;51.440;6.914;2023-05-10T00:34:41;3.70;;;3.38;;
16197;SDS011;8206;51.440;6.914;2023-05-10T00:37:07;2.97;;;2.88;;
16197;SDS011;8206;51.440;6.914;2023-05-10T00:39:34;3.00;;;2.80;;
16197;SDS011;8206;51.440;6.914;2023-05-10T00:42:01;2.25;;;2.05;;
16197;SDS011;8206;51.440;6.914;2023-05-10T00:44:29;2.60;;;2.30;;
16197;SDS011;8206;51.440;6.914;2023-05-10T00:46:56;4.65;;;4.35;;
16197;SDS011;8206;51.440;6.914;2023-05-10T00:49:25;2.60;;;2.40;;
16197;SDS011;8206;51.440;6.914;2023-05-10T00:51:51;3.45;;;3.20;;
16197;SDS011;8206;51.440;6.914;2023-05-10T00:54:18;2.03;;;1.92;;
16197;SDS011;8206;51.440;6.914;2023-05-10T00:56:45;2.63;;;2.42;;
16197;SDS011;8206;51.440;6.914;2023-05-10T00:59:14;3.50;;;2.97;;
16197;SDS011;8206;51.440;6.914;2023-05-10T01:01:41;5.32;;;4.82;;
16197;SDS011;8206;51.440;6.914;2023-05-10T01:04:08;1.85;;;1.75;;
16197;SDS011;8206;51.440;6.914;2023-05-10T01:06:37;2.08;;;2.05;;
16197;SDS011;8206;51.440;6.914;2023-05-10T01:09:04;4.47;;;3.63;;
16197;SDS011;8206;51.440;6.914;2023-05-10T01:11:31;2.10;;;2.00;;
16197;SDS011;8206;51.440;6.914;2023-05-10T01:13:58;3.92;;;3.63;;
16197;SDS011;8206;51.440;6.914;2023-05-10T01:16:25;3.50;;;3.20;;
16197;SDS011;8206;51.440;6.914;2023-05-10T01:18:53;3.33;;;3.10;;
16197;SDS011;8206;51.440;6.914;2023-05-10T01:21:23;4.60;;;3.65;;
16197;SDS011;8206;51.440;6.914;2023-05-10T01:24:08;2.42;;;2.28;;
16197;SDS011;8206;51.440;6.914;2023-05-10T01:26:52;3.53;;;3.15;;
16197;SDS011;8206;51.440;6.914;2023-05-10T01:29:47;4.28;;;3.92;;
16197;SDS011;8206;51.440;6.914;2023-05-10T01:32:37;3.75;;;2.72;;
16197;SDS011;8206;51.440;6.914;2023-05-10T01:35:10;4.78;;;4.38;;
16197;SDS011;8206;51.440;6.914;2023-05-10T01:37:45;3.40;;;3.20;;
16197;SDS011;8206;51.440;6.914;2023-05-10T01:40:17;10.18;;;4.97;;
16197;SDS011;8206;51.440;6.914;2023-05-10T01:42:50;3.63;;;2.90;;
16197;SDS011;8206;51.440;6.914;2023-05-10T01:45:22;10.75;;;5.10;;
16197;SDS011;8206;51.440;6.914;2023-05-10T01:48:01;3.95;;;3.75;;
16197;SDS011;8206;51.440;6.914;2023-05-10T01:50:32;7.05;;;3.35;;
16197;SDS011;8206;51.440;6.914;2023-05-10T01:53:01;6.10;;;5.57;;
16197;SDS011;8206;51.440;6.914;2023-05-10T01:55:32;4.85;;;4.22;;
16197;SDS011;8206;51.440;6.914;2023-05-10T01:58:02;3.25;;;2.97;;
16197;SDS011;8206;51.440;6.914;2023-05-10T02:00:33;4.63;;;4.22;;
16197;SDS011;8206;51.440;6.914;2023-05-10T02:03:03;6.75;;;4.15;;
16197;SDS011;8206;51.440;6.914;2023-05-10T02:05:32;4.18;;;3.88;;
16197;SDS011;8206;51.440;6.914;2023-05-10T02:08:01;5.32;;;4.93;;
16197;SDS011;8206;51.440;6.914;2023-05-10T02:10:32;2.65;;;2.53;;
16197;SDS011;8206;51.440;6.914;2023-05-10T02:13:00;4.35;;;4.05;;
16197;SDS011;8206;51.440;6.914;2023-05-10T02:15:28;3.95;;;3.75;;
16197;SDS011;8206;51.440;6.914;2023-05-10T02:17:57;10.52;;;5.80;;
16197;SDS011;8206;51.440;6.914;2023-05-10T02:20:27;3.97;;;3.78;;
16197;SDS011;8206;51.440;6.914;2023-05-10T02:22:55;6.72;;;3.25;;
16197;SDS011;8206;51.440;6.914;2023-05-10T02:25:23;3.08;;;2.88;;
16197;SDS011;8206;51.440;6.914;2023-05-10T02:27:51;3.75;;;3.45;;
16197;SDS011;8206;51.440;6.914;2023-05-10T02:30:20;7.25;;;4.05;;
16197;SDS011;8206;51.440;6.914;2023-05-10T02:32:48;4.00;;;3.72;;
16197;SDS011;8206;51.440;6.914;2023-05-10T02:35:16;5.28;;;4.32;;
16197;SDS011;8206;51.440;6.914;2023-05-10T02:37:45;8.93;;;4.47;;
16197;SDS011;8206;51.440;6.914;2023-05-10T02:40:13;7.63;;;2.90;;
16197;SDS011;8206;51.440;6.914;2023-05-10T02:42:43;2.70;;;2.05;;
16197;SDS011;8206;51.440;6.914;2023-05-10T02:45:12;4.90;;;4.45;;
16197;SDS011;8206;51.440;6.914;2023-05-10T02:47:41;4.90;;;3.80;;
16197;SDS011;8206;51.440;6.914;2023-05-10T02:50:08;3.85;;;2.50;;
16197;SDS011;8206;51.440;6.914;2023-05-10T02:52:39;4.28;;;3.75;;
16197;SDS011;8206;51.440;6.914;2023-05-10T02:55:09;7.13;;;4.78;;
16197;SDS011;8206;51.440;6.914;2023-05-10T02:57:40;5.28;;;2.80;;
16197;SDS011;8206;51.440;6.914;2023-05-10T03:00:12;2.85;;;2.65;;
16197;SDS011;8206;51.440;6.914;2023-05-10T03:02:39;3.58;;;2.42;;
16197;SDS011;8206;51.440;6.914;2023-05-10T03:05:05;2.33;;;2.22;;
16197;SDS011;8206;51.440;6.914;2023-05-10T03:07:32;3.28;;;3.08;;
16197;SDS011;8206;51.440;6.914;2023-05-10T03:09:59;4.15;;;3.42;;
16197;SDS011;8206;51.440;6.914;2023-05-10T03:12:30;3.38;;;2.53;;
16197;SDS011;8206;51.440;6.914;2023-05-10T03:15:10;5.70;;;3.95;;
16197;SDS011;8206;51.440;6.914;2023-05-10T03:17:45;6.80;;;4.95;;
16197;SDS011;8206;51.440;6.914;2023-05-10T03:20:21;5.53;;;5.03;;
16197;SDS011;8206;51.440;6.914;2023-05-10T03:22:51;3.53;;;3.33;;
16197;SDS011;8206;51.440;6.914;2023-05-10T03:25:26;5.35;;;2.65;;
16197;SDS011;8206;51.440;6.914;2023-05-10T03:27:56;4.45;;;4.05;;
16197;SDS011;8206;51.440;6.914;2023-05-10T03:30:25;6.13;;;4.82;;
16197;SDS011;8206;51.440;6.914;2023-05-10T03:32:52;9.20;;;5.05;;
16197;SDS011;8206;51.440;6.914;2023-05-10T03:35:19;9.32;;;4.55;;
16197;SDS011;8206;51.440;6.914;2023-05-10T03:37:45;5.88;;;3.10;;
16197;SDS011;8206;51.440;6.914;2023-05-10T03:40:12;3.33;;;2.17;;
16197;SDS011;8206;51.440;6.914;2023-05-10T03:42:39;5.72;;;4.95;;
16197;SDS011;8206;51.440;6.914;2023-05-10T03:45:08;6.75;;;4.43;;
16197;SDS011;8206;51.440;6.914;2023-05-10T03:47:35;7.90;;;5.25;;
16197;SDS011;8206;51.440;6.914;2023-05-10T03:50:02;11.10;;;5.65;;
16197;SDS011;8206;51.440;6.914;2023-05-10T03:52:29;6.68;;;5.95;;
16197;SDS011;8206;51.440;6.914;2023-05-10T03:54:56;4.65;;;4.35;;
16197;SDS011;8206;51.440;6.914;2023-05-10T03:57:23;4.78;;;4.07;;
16197;SDS011;8206;51.440;6.914;2023-05-10T03:59:50;3.33;;;3.15;;
16197;SDS011;8206;51.440;6.914;2023-05-10T04:02:18;9.63;;;3.50;;
16197;SDS011;8206;51.440;6.914;2023-05-10T04:04:44;6.78;;;6.18;;
16197;SDS011;8206;51.440;6.914;2023-05-10T04:07:11;4.78;;;4.43;;
16197;SDS011;8206;51.440;6.914;2023-05-10T04:09:38;5.50;;;5.22;;
16197;SDS011;8206;51.440;6.914;2023-05-10T04:12:04;9.43;;;4.97;;
16197;SDS011;8206;51.440;6.914;2023-05-10T04:14:31;7.20;;;5.78;;
16197;SDS011;8206;51.440;6.914;2023-05-10T04:16:58;8.82;;;4.80;;
16197;SDS011;8206;51.440;6.914;2023-05-10T04:19:29;5.65;;;3.25;;
16197;SDS011;8206;51.440;6.914;2023-05-10T04:21:56;6.93;;;5.80;;
16197;SDS011;8206;51.440;6.914;2023-05-10T04:24:23;5.25;;;4.80;;
16197;SDS011;8206;51.440;6.914;2023-05-10T04:26:50;3.97;;;3.70;;
16197;SDS011;8206;51.440;6.914;2023-05-10T04:29:17;8.63;;;7.65;;
16197;SDS011;8206;51.440;6.914;2023-05-10T04:31:44;11.05;;;5.80;;
16197;SDS011;8206;51.440;6.914;2023-05-10T04:34:10;6.32;;;5.78;;
16197;SDS011;8206;51.440;6.914;2023-05-10T04:36:38;7.28;;;6.35;;
16197;SDS011;8206;51.440;6.914;2023-05-10T04:39:05;6.18;;;5.63;;
16197;SDS011;8206;51.440;6.914;2023-05-10T04:41:32;6.85;;;5.88;;
16197;SDS011;8206;51.440;6.914;2023-05-10T04:43:58;5.88;;;5.30;;
16197;SDS011;8206;51.440;6.914;2023-05-10T04:46:25;8.93;;;6.60;;
16197;SDS011;8206;51.440;6.914;2023-05-10T04:48:52;7.90;;;4.40;;
16197;SDS011;8206;51.440;6.914;2023-05-10T04:51:18;8.57;;;4.88;;
16197;SDS011;8206;51.440;6.914;2023-05-10T04:53:47;8.07;;;7.28;;
16197;SDS011;8206;51.440;6.914;2023-05-10T04:56:14;8.30;;;5.85;;
16197;SDS011;8206;51.440;6.914;2023-05-10T04:58:41;7.50;;;6.90;;
16197;SDS011;8206;51.440;6.914;2023-05-10T05:01:07;9.90;;;5.47;;
16197;SDS011;8206;51.440;6.914;2023-05-10T05:03:35;7.45;;;6.68;;
16197;SDS011;8206;51.440;6.914;2023-05-10T05:06:03;8.50;;;5.95;;
16197;SDS011;8206;51.440;6.914;2023-05-10T05:08:30;11.93;;;7.45;;
16197;SDS011;8206;51.440;6.914;2023-05-10T05:10:58;7.05;;;6.40;;
16197;SDS011;8206;51.440;6.914;2023-05-10T05:13:24;8.45;;;5.93;;
16197;SDS011;8206;51.440;6.914;2023-05-10T05:15:51;8.20;;;5.35;;
16197;SDS011;8206;51.440;6.914;2023-05-10T05:18:18;8.57;;;7.70;;
16197;SDS011;8206;51.440;6.914;2023-05-10T05:20:45;13.27;;;9.30;;
16197;SDS011;8206;51.440;6.914;2023-05-10T05:23:11;9.82;;;7.32;;
16197;SDS011;8206;51.440;6.914;2023-05-10T05:25:38;5.95;;;5.57;;
16197;SDS011;8206;51.440;6.914;2023-05-10T05:28:06;7.00;;;4.43;;
16197;SDS011;8206;51.440;6.914;2023-05-10T05:30:32;5.72;;;5.32;;
16197;SDS011;8206;51.440;6.914;2023-05-10T05:32:59;8.80;;;7.60;;
16197;SDS011;8206;51.440;6.914;2023-05-10T05:35:26;9.38;;;7.18;;
16197;SDS011;8206;51.440;6.914;2023-05-10T05:37:52;6.88;;;5.95;;
16197;SDS011;8206;51.440;6.914;2023-05-10T05:40:19;14.35;;;6.20;;
16197;SDS011;8206;51.440;6.914;2023-05-10T05:42:46;19.55;;;6.25;;
16197;SDS011;8206;51.440;6.914;2023-05-10T05:45:14;9.57;;;8.52;;
16197;SDS011;8206;51.440;6.914;2023-05-10T05:47:41;9.00;;;6.43;;
16197;SDS011;8206;51.440;6.914;2023-05-10T05:50:08;7.38;;;6.72;;
16197;SDS011;8206;51.440;6.914;2023-05-10T05:52:35;4.43;;;3.92;;
16197;SDS011;8206;51.440;6.914;2023-05-10T05:55:02;6.00;;;5.60;;
16197;SDS011;8206;51.440;6.914;2023-05-10T05:57:29;4.65;;;4.30;;
16197;SDS011;8206;51.440;6.914;2023-05-10T05:59:56;14.40;;;5.55;;
16197;SDS011;8206;51.440;6.914;2023-05-10T06:02:24;8.13;;;6.63;;
16197;SDS011;8206;51.440;6.914;2023-05-10T06:04:50;7.30;;;6.70;;
16197;SDS011;8206;51.440;6.914;2023-05-10T06:07:17;8.98;;;8.18;;
16197;SDS011;8206;51.440;6.914;2023-05-10T06:09:44;6.95;;;5.45;;
16197;SDS011;8206;51.440;6.914;2023-05-10T06:12:10;7.03;;;6.35;;
16197;SDS011;8206;51.440;6.914;2023-05-10T06:14:37;10.85;;;8.25;;
16197;SDS011;8206;51.440;6.914;2023-05-10T06:17:04;5.88;;;5.43;;
16197;SDS011;8206;51.440;6.914;2023-05-10T06:19:33;20.92;;;7.32;;
16197;SDS011;8206;51.440;6.914;2023-05-10T06:21:59;7.80;;;6.95;;
16197;SDS011;8206;51.440;6.914;2023-05-10T06:24:26;11.50;;;7.95;;
16197;SDS011;8206;51.440;6.914;2023-05-10T06:26:53;10.32;;;7.95;;
16197;SDS011;8206;51.440;6.914;2023-05-10T06:29:19;17.90;;;10.75;;
16197;SDS011;8206;51.440;6.914;2023-05-10T06:31:46;9.18;;;8.27;;
16197;SDS011;8206;51.440;6.914;2023-05-10T06:34:13;9.93;;;8.63;;
16197;SDS011;8206;51.440;6.914;2023-05-10T06:36:41;13.00;;;9.48;;
16197;SDS011;8206;51.440;6.914;2023-05-10T06:39:08;14.98;;;8.70;;
16197;SDS011;8206;51.440;6.914;2023-05-10T06:41:36;13.63;;;8.45;;
16197;SDS011;8206;51.440;6.914;2023-05-10T06:44:03;9.55;;;8.82;;
16197;SDS011;8206;51.440;6.914;2023-05-10T06:46:30;10.95;;;5.38;;
16197;SDS011;8206;51.440;6.914;2023-05-10T06:48:56;11.15;;;7.85;;
16197;SDS011;8206;51.440;6.914;2023-05-10T06:51:23;9.77;;;8.23;;
16197;SDS011;8206;51.440;6.914;2023-05-10T06:53:51;8.50;;;7.30;;
16197;SDS011;8206;51.440;6.914;2023-05-10T06:56:18;8.35;;;6.03;;
16197;SDS011;8206;51.440;6.914;2023-05-10T06:58:46;14.50;;;9.40;;
16197;SDS011;8206;51.440;6.914;2023-05-10T07:01:13;9.82;;;7.32;;
16197;SDS011;8206;51.440;6.914;2023-05-10T07:03:40;13.35;;;7.93;;
16197;SDS011;8206;51.440;6.914;2023-05-10T07:06:06;9.52;;;7.78;;
16197;SDS011;8206;51.440;6.914;2023-05-10T07:08:33;6.38;;;5.82;;
16197;SDS011;8206;51.440;6.914;2023-05-10T07:11:02;8.77;;;7.28;;
16197;SDS011;8206;51.440;6.914;2023-05-10T07:13:29;14.45;;;10.45;;
16197;SDS011;8206;51.440;6.914;2023-05-10T07:15:57;12.45;;;8.93;;
16197;SDS011;8206;51.440;6.914;2023-05-10T07:18:23;8.13;;;7.20;;
16197;SDS011;8206;51.440;6.914;2023-05-10T07:20:50;12.93;;;8.65;;
16197;SDS011;8206;51.440;6.914;2023-05-10T07:23:17;9.38;;;7.50;;
16197;SDS011;8206;51.440;6.914;2023-05-10T07:25:44;11.40;;;7.45;;
16197;SDS011;8206;51.440;6.914;2023-05-10T07:28:13;11.65;;;8.75;;
16197;SDS011;8206;51.440;6.914;2023-05-10T07:30:40;13.00;;;7.80;;
16197;SDS011;8206;51.440;6.914;2023-05-10T07:33:07;15.07;;;8.55;;
16197;SDS011;8206;51.440;6.914;2023-05-10T07:35:34;8.50;;;7.80;;
16197;SDS011;8206;51.440;6.914;2023-05-10T07:38:01;8.30;;;7.10;;
16197;SDS011;8206;51.440;6.914;2023-05-10T07:40:28;7.35;;;6.93;;
16197;SDS011;8206;51.440;6.914;2023-05-10T07:42:55;8.05;;;7.07;;
16197;SDS011;8206;51.440;6.914;2023-05-10T07:45:23;6.63;;;6.22;;
16197;SDS011;8206;51.440;6.914;2023-05-10T07:47:50;13.68;;;5.88;;
16197;SDS011;8206;51.440;6.914;2023-05-10T07:50:17;11.38;;;6.50;;
16197;SDS011;8206;51.440;6.914;2023-05-10T07:52:43;10.20;;;6.55;;
16197;SDS011;8206;51.440;6.914;2023-05-10T07:55:10;6.38;;;5.47;;
16197;SDS011;8206;51.440;6.914;2023-05-10T07:57:37;7.32;;;6.57;;
16197;SDS011;8206;51.440;6.914;2023-05-10T08:00:05;16.73;;;5.90;;
16197;SDS011;8206;51.440;6.914;2023-05-10T08:02:34;9.13;;;7.45;;
16197;SDS011;8206;51.440;6.914;2023-05-10T08:05:01;6.20;;;5.80;;
16197;SDS011;8206;51.440;6.914;2023-05-10T08:07:28;10.80;;;7.85;;
16197;SDS011;8206;51.440;6.914;2023-05-10T08:09:54;11.75;;;6.75;;
16197;SDS011;8206;51.440;6.914;2023-05-10T08:12:21;7.75;;;5.65;;
16197;SDS011;8206;51.440;6.914;2023-05-10T08:14:47;9.75;;;7.35;;
16197;SDS011;8206;51.440;6.914;2023-05-10T08:17:14;8.68;;;6.93;;
16197;SDS011;8206;51.440;6.914;2023-05-10T08:19:42;7.47;;;6.85;;
16197;SDS011;8206;51.440;6.914;2023-05-10T08:22:09;12.10;;;7.45;;
16197;SDS011;8206;51.440;6.914;2023-05-10T08:24:35;9.48;;;8.70;;
16197;SDS011;8206;51.440;6.914;2023-05-10T08:27:03;7.28;;;6.45;;
16197;SDS011;8206;51.440;6.914;2023-05-10T08:29:30;8.27;;;4.60;;
16197;SDS011;8206;51.440;6.914;2023-05-10T08:31:57;5.93;;;5.50;;
16197;SDS011;8206;51.440;6.914;2023-05-10T08:34:23;11.02;;;7.57;;
16197;SDS011;8206;51.440;6.914;2023-05-10T08:36:52;10.10;;;6.45;;
16197;SDS011;8206;51.440;6.914;2023-05-10T08:39:18;4.22;;;4.03;;
16197;SDS011;8206;51.440;6.914;2023-05-10T08:41:45;8.07;;;6.53;;
16197;SDS011;8206;51.440;6.914;2023-05-10T08:44:13;14.88;;;5.97;;
16197;SDS011;8206;51.440;6.914;2023-05-10T08:46:43;5.40;;;5.00;;
16197;SDS011;8206;51.440;6.914;2023-05-10T08:49:13;6.95;;;5.10;;
16197;SDS011;8206;51.440;6.914;2023-05-10T08:51:44;13.40;;;6.10;;
16197;SDS011;8206;51.440;6.914;2023-05-10T08:54:17;5.40;;;4.38;;
16197;SDS011;8206;51.440;6.914;2023-05-10T08:56:44;7.80;;;7.20;;
16197;SDS011;8206;51.440;6.914;2023-05-10T08:59:11;5.20;;;4.85;;
16197;SDS011;8206;51.440;6.914;2023-05-10T09:01:39;5.93;;;5.53;;
16197;SDS011;8206;51.440;6.914;2023-05-10T09:04:07;4.97;;;4.68;;
16197;SDS011;8206;51.440;6.914;2023-05-10T09:06:33;9.65;;;7.57;;
16197;SDS011;8206;51.440;6.914;2023-05-10T09:09:00;8.68;;;7.95;;
16197;SDS011;8206;51.440;6.914;2023-05-10T09:11:29;7.20;;;5.43;;
16197;SDS011;8206;51.440;6.914;2023-05-10T09:13:56;7.45;;;6.20;;
16197;SDS011;8206;51.440;6.914;2023-05-10T09:16:23;9.68;;;6.47;;
16197;SDS011;8206;51.440;6.914;2023-05-10T09:18:50;7.60;;;6.05;;
16197;SDS011;8206;51.440;6.914;2023-05-10T09:21:17;5.95;;;5.55;;
16197;SDS011;8206;51.440;6.914;2023-05-10T09:23:45;6.13;;;5.50;;
16197;SDS011;8206;51.440;6.914;2023-05-10T09:26:12;7.95;;;7.45;;
16197;SDS011;8206;51.440;6.914;2023-05-10T09:28:51;6.80;;;6.18;;
16197;SDS011;8206;51.440;6.914;2023-05-10T09:31:18;6.80;;;4.63;;
16197;SDS011;8206;51.440;6.914;2023-05-10T09:33:45;15.02;;;7.97;;
16197;SDS011;8206;51.440;6.914;2023-05-10T09:36:12;9.57;;;8.32;;
16197;SDS011;8206;51.440;6.914;2023-05-10T09:38:46;7.25;;;6.65;;
16197;SDS011;8206;51.440;6.914;2023-05-10T09:41:17;6.88;;;5.93;;
16197;SDS011;8206;51.440;6.914;2023-05-10T09:43:45;9.77;;;5.63;;
16197;SDS011;8206;51.440;6.914;2023-05-10T09:46:13;6.18;;;5.55;;
16197;SDS011;8206;51.440;6.914;2023-05-10T09:48:41;6.03;;;4.47;;
16197;SDS011;8206;51.440;6.914;2023-05-10T09:51:08;8.75;;;4.70;;
16197;SDS011;8206;51.440;6.914;2023-05-10T09:53:35;8.95;;;5.80;;
16197;SDS011;8206;51.440;6.914;2023-05-10T09:56:02;3.90;;;3.60;;
16197;SDS011;8206;51.440;6.914;2023-05-10T09:58:29;4.15;;;3.80;;
16197;SDS011;8206;51.440;6.914;2023-05-10T10:00:55;3.80;;;2.63;;
16197;SDS011;8206;51.440;6.914;2023-05-10T10:03:23;10.63;;;5.72;;
16197;SDS011;8206;51.440;6.914;2023-05-10T10:05:50;4.70;;;4.30;;
16197;SDS011;8206;51.440;6.914;2023-05-10T10:08:18;5.25;;;4.85;;
16197;SDS011;8206;51.440;6.914;2023-05-10T10:10:45;2.95;;;2.78;;
16197;SDS011;8206;51.440;6.914;2023-05-10T10:13:12;9.32;;;4.55;;
16197;SDS011;8206;51.440;6.914;2023-05-10T10:15:39;3.28;;;2.53;;
16197;SDS011;8206;51.440;6.914;2023-05-10T10:18:07;7.47;;;2.90;;
16197;SDS011;8206;51.440;6.914;2023-05-10T10:20:40;4.80;;;4.15;;
16197;SDS011;8206;51.440;6.914;2023-05-10T10:23:07;3.17;;;2.97;;
16197;SDS011;8206;51.440;6.914;2023-05-10T10:25:34;3.90;;;3.60;;
16197;SDS011;8206;51.440;6.914;2023-05-10T10:28:10;6.07;;;5.53;;
16197;SDS011;8206;51.440;6.914;2023-05-10T10:30:46;4.03;;;3.75;;
16197;SDS011;8206;51.440;6.914;2023-05-10T10:33:22;6.35;;;5.72;;
16197;SDS011;8206;51.440;6.914;2023-05-10T10:36:01;4.85;;;4.45;;
16197;SDS011;8206;51.440;6.914;2023-05-10T10:38:36;5.20;;;4.70;;
16197;SDS011;8206;51.440;6.914;2023-05-10T10:41:09;7.20;;;4.25;;
16197;SDS011;8206;51.440;6.914;2023-05-10T10:43:36;3.45;;;3.25;;
16197;SDS011;8206;51.440;6.914;2023-05-10T10:46:10;11.70;;;3.45;;
16197;SDS011;8206;51.440;6.914;2023-05-10T10:48:38;4.00;;;3.70;;
16197;SDS011;8206;51.440;6.914;2023-05-10T10:51:07;3.72;;;3.42;;
16197;SDS011;8206;51.440;6.914;2023-05-10T10:53:33;6.82;;;4.15;;
16197;SDS011;8206;51.440;6.914;2023-05-10T10:56:07;4.63;;;3.50;;
16197;SDS011;8206;51.440;6.914;2023-05-10T10:58:36;5.43;;;4.97;;
16197;SDS011;8206;51.440;6.914;2023-05-10T11:01:13;3.10;;;2.90;;
16197;SDS011;8206;51.440;6.914;2023-05-10T11:03:41;16.63;;;4.80;;
16197;SDS011;8206;51.440;6.914;2023-05-10T11:06:42;3.33;;;3.13;;
16197;SDS011;8206;51.440;6.914;2023-05-10T11:09:09;5.35;;;4.70;;
16197;SDS011;8206;51.440;6.914;2023-05-10T11:11:48;3.95;;;3.75;;
16197;SDS011;8206;51.440;6.914;2023-05-10T11:14:19;6.97;;;3.95;;
16197;SDS011;8206;51.440;6.914;2023-05-10T11:16:47;3.63;;;3.25;;
16197;SDS011;8206;51.440;6.914;2023-05-10T11:19:14;5.00;;;4.57;;
16197;SDS011;8206;51.440;6.914;2023-05-10T11:21:47;6.32;;;4.97;;
16197;SDS011;8206;51.440;6.914;2023-05-10T11:24:15;4.50;;;4.22;;
16197;SDS011;8206;51.440;6.914;2023-05-10T11:26:43;5.15;;;4.65;;
16197;SDS011;8206;51.440;6.914;2023-05-10T11:29:09;7.45;;;3.65;;
16197;SDS011;8206;51.440;6.914;2023-05-10T11:31:41;5.05;;;4.55;;
16197;SDS011;8206;51.440;6.914;2023-05-10T11:34:08;6.50;;;3.85;;
16197;SDS011;8206;51.440;6.914;2023-05-10T11:36:36;5.53;;;4.50;;
16197;SDS011;8206;51.440;6.914;2023-05-10T11:39:04;9.88;;;6.30;;
16197;SDS011;8206;51.440;6.914;2023-05-10T11:41:31;3.13;;;2.80;;
16197;SDS011;8206;51.440;6.914;2023-05-10T11:43:58;3.83;;;3.55;;
16197;SDS011;8206;51.440;6.914;2023-05-10T11:46:26;3.33;;;3.13;;
16197;SDS011;8206;51.440;6.914;2023-05-10T11:48:54;10.25;;;4.47;;
16197;SDS011;8206;51.440;6.914;2023-05-10T11:51:25;3.20;;;2.88;;
16197;SDS011;8206;51.440;6.914;2023-05-10T11:53:52;3.90;;;3.65;;
16197;SDS011;8206;51.440;6.914;2023-05-10T11:56:21;1.92;;;1.85;;
16197;SDS011;8206;51.440;6.914;2023-05-10T11:58:52;2.83;;;2.63;;
16197;SDS011;8206;51.440;6.914;2023-05-10T12:01:20;1.52;;;1.52;;
16197;SDS011;8206;51.440;6.914;2023-05-10T12:03:48;4.15;;;3.00;;
16197;SDS011;8206;51.440;6.914;2023-05-10T12:06:14;2.88;;;2.67;;
16197;SDS011;8206;51.440;6.914;2023-05-10T12:08:43;2.55;;;2.42;;
16197;SDS011;8206;51.440;6.914;2023-05-10T12:11:11;6.57;;;3.08;;
16197;SDS011;8206;51.440;6.914;2023-05-10T12:13:42;3.15;;;2.95;;
16197;SDS011;8206;51.440;6.914;2023-05-10T12:16:15;1.60;;;1.50;;
16197;SDS011;8206;51.440;6.914;2023-05-10T12:18:43;2.10;;;2.00;;
16197;SDS011;8206;51.440;6.914;2023-05-10T12:21:10;1.58;;;1.58;;
16197;SDS011;8206;51.440;6.914;2023-05-10T12:23:38;1.08;;;1.08;;
16197;SDS011;8206;51.440;6.914;2023-05-10T12:26:05;3.85;;;2.67;;
16197;SDS011;8206;51.440;6.914;2023-05-10T12:28:32;1.30;;;1.30;;
16197;SDS011;8206;51.440;6.914;2023-05-10T12:31:01;2.45;;;1.65;;
16197;SDS011;8206;51.440;6.914;2023-05-10T12:33:34;2.72;;;2.53;;
16197;SDS011;8206;51.440;6.914;2023-05-10T12:36:02;12.07;;;1.92;;
16197;SDS011;8206;51.440;6.914;2023-05-10T12:38:31;1.70;;;1.60;;
16197;SDS011;8206;51.440;6.914;2023-05-10T12:40:59;1.13;;;1.13;;
16197;SDS011;8206;51.440;6.914;2023-05-10T12:43:27;2.40;;;2.22;;
16197;SDS011;8206;51.440;6.914;2023-05-10T12:45:54;0.88;;;0.88;;
16197;SDS011;8206;51.440;6.914;2023-05-10T12:48:22;2.40;;;1.50;;
16197;SDS011;8206;51.440;6.914;2023-05-10T12:50:49;1.05;;;1.05;;
16197;SDS011;8206;51.440;6.914;2023-05-10T12:53:16;1.48;;;1.10;;
16197;SDS011;8206;51.440;6.914;2023-05-10T12:55:42;1.10;;;1.05;;
16197;SDS011;8206;51.440;6.914;2023-05-10T12:58:09;2.85;;;2.35;;
16197;SDS011;8206;51.440;6.914;2023-05-10T13:00:36;0.75;;;0.75;;
16197;SDS011;8206;51.440;6.914;2023-05-10T13:03:03;0.80;;;0.80;;
16197;SDS011;8206;51.440;6.914;2023-05-10T13:05:32;1.23;;;1.17;;
16197;SDS011;8206;51.440;6.914;2023-05-10T13:07:59;5.88;;;1.13;;
16197;SDS011;8206;51.440;6.914;2023-05-10T13:10:26;0.85;;;0.82;;
16197;SDS011;8206;51.440;6.914;2023-05-10T13:12:52;1.33;;;0.95;;
16197;SDS011;8206;51.440;6.914;2023-05-10T13:15:19;0.93;;;0.93;;
16197;SDS011;8206;51.440;6.914;2023-05-10T13:17:46;0.20;;;0.20;;
16197;SDS011;8206;51.440;6.914;2023-05-10T13:20:12;4.72;;;1.35;;
16197;SDS011;8206;51.440;6.914;2023-05-10T13:22:40;0.75;;;0.75;;
16197;SDS011;8206;51.440;6.914;2023-05-10T13:25:07;1.23;;;1.23;;
16197;SDS011;8206;51.440;6.914;2023-05-10T13:27:35;0.50;;;0.50;;
16197;SDS011;8206;51.440;6.914;2023-05-10T13:30:01;1.17;;;1.17;;
16197;SDS011;8206;51.440;6.914;2023-05-10T13:32:29;0.75;;;0.73;;
16197;SDS011;8206;51.440;6.914;2023-05-10T13:34:56;0.68;;;0.68;;
16197;SDS011;8206;51.440;6.914;2023-05-10T13:37:22;0.82;;;0.80;;
16197;SDS011;8206;51.440;6.914;2023-05-10T13:39:50;1.65;;;1.55;;
16197;SDS011;8206;51.440;6.914;2023-05-10T13:42:17;0.95;;;0.95;;
16197;SDS011;8206;51.440;6.914;2023-05-10T13:44:44;0.70;;;0.70;;
16197;SDS011;8206;51.440;6.914;2023-05-10T13:47:11;1.13;;;1.13;;
16197;SDS011;8206;51.440;6.914;2023-05-10T13:49:37;0.90;;;0.90;;
16197;SDS011;8206;51.440;6.914;2023-05-10T13:52:04;0.93;;;0.93;;
16197;SDS011;8206;51.440;6.914;2023-05-10T13:54:32;1.48;;;1.20;;
16197;SDS011;8206;51.440;6.914;2023-05-10T13:57:00;1.60;;;1.50;;
16197;SDS011;8206;51.440;6.914;2023-05-10T13:59:28;1.02;;;1.02;;
16197;SDS011;8206;51.440;6.914;2023-05-10T14:01:56;1.50;;;1.35;;
16197;SDS011;8206;51.440;6.914;2023-05-10T14:04:23;0.70;;;0.70;;
16197;SDS011;8206;51.440;6.914;2023-05-10T14:06:49;0.82;;;0.82;;
16197;SDS011;8206;51.440;6.914;2023-05-10T14:09:17;1.35;;;1.25;;
16197;SDS011;8206;51.440;6.914;2023-05-10T14:11:44;1.17;;;1.17;;
16197;SDS011;8206;51.440;6.914;2023-05-10T14:14:12;1.67;;;1.58;;
16197;SDS011;8206;51.440;6.914;2023-05-10T14:16:41;1.60;;;1.50;;
16197;SDS011;8206;51.440;6.914;2023-05-10T14:19:08;0.82;;;0.82;;
16197;SDS011;8206;51.440;6.914;2023-05-10T14:21:35;2.10;;;2.00;;
16197;SDS011;8206;51.440;6.914;2023-05-10T14:24:02;1.45;;;1.38;;
16197;SDS011;8206;51.440;6.914;2023-05-10T14:26:28;1.73;;;1.67;;
16197;SDS011;8206;51.440;6.914;2023-05-10T14:28:56;1.50;;;1.40;;
16197;SDS011;8206;51.440;6.914;2023-05-10T14:31:25;1.88;;;1.77;;
16197;SDS011;8206;51.440;6.914;2023-05-10T14:33:52;2.38;;;2.10;;
16197;SDS011;8206;51.440;6.914;2023-05-10T14:36:18;1.58;;;1.48;;
16197;SDS011;8206;51.440;6.914;2023-05-10T14:38:45;2.03;;;1.92;;
16197;SDS011;8206;51.440;6.914;2023-05-10T14:41:12;1.90;;;1.80;;
16197;SDS011;8206;51.440;6.914;2023-05-10T14:43:40;2.00;;;1.90;;
16197;SDS011;8206;51.440;6.914;2023-05-10T14:46:06;1.33;;;1.23;;
16197;SDS011;8206;51.440;6.914;2023-05-10T14:48:34;1.45;;;1.45;;
16197;SDS011;8206;51.440;6.914;2023-05-10T14:51:01;2.38;;;2.28;;
16197;SDS011;8206;51.440;6.914;2023-05-10T14:53:28;4.25;;;2.85;;
16197;SDS011;8206;51.440;6.914;2023-05-10T14:55:55;1.95;;;1.10;;
16197;SDS011;8206;51.440;6.914;2023-05-10T14:58:22;0.85;;;0.85;;
16197;SDS011;8206;51.440;6.914;2023-05-10T15:00:49;1.80;;;1.70;;
16197;SDS011;8206;51.440;6.914;2023-05-10T15:03:16;1.42;;;1.40;;
16197;SDS011;8206;51.440;6.914;2023-05-10T15:05:44;1.02;;;0.98;;